Wilberforce, OH (45384)

10:37 PM EDT on March 23, 2017 (GMT -0400)
SPCLA | | Change Station
Active Advisory: Special Statement

Elev 1033 ft 39.71 °N, 83.85 °W | Updated 11 minutes ago

Overcast
Overcast
49.1 °F
Feels Like 49 °F
N
2.0
Wind Variable Wind from SSE
Gusts 4.0 mph

Today
High -- | Low -- °F
--% Chance of Precip.
Yesterday
High -- | Low -- °F
Precip. -- in
Pressure 30.25 in
Visibility 10.0 miles
Clouds Mostly Cloudy 6000 ft
Windchill 49 °F
Dew Point 33 °F
Humidity 55%
Rainfall 0.00 in
Snow Depth Not available.
7:33 AM 7:50 PM
Waning Crescent, 19% visible
METAR KSGH 240156Z AUTO 14007KT 10SM BKN060 08/M01 A3022 RMK AO2 SLP244 T00781006 TSNO
Pressure 30.25 in
Visibility 10.0 miles
Clouds Mostly Cloudy 6000 ft
Windchill 49 °F
Dew Point 33 °F
Humidity 55%
Rainfall 0.00 in
Snow Depth Not available.
7:33 AM 7:50 PM
Waning Crescent, 19% visible
METAR KSGH 240156Z AUTO 14007KT 10SM BKN060 08/M01 A3022 RMK AO2 SLP244 T00781006 TSNO

Get Your Daily Forecast Email!

Thanks for signing up!

Be on the lookout for a verification email in your inbox.

You'll start receiving severe weather alerts in your inbox..

×

10-Day Weather Forecast

Almanac

Astronomy

Mar. 23, 2017 Rise Set
Actual Time
Civil Twilight
Nautical Twilight
Astronomical Twilight
Moon
Length of Visible Light
Length of Day
Tomorrow will be .
, % of the Moon is Illuminated

Today's Extremes

State Highs State Lows

Community

WunderPhotos

Upload Photos

1,962,540 photos uploaded!

WunderBlog® & News

Nearby

Air Quality

  Air Quality AQ Index Pollutant
Not available.

Snow Depth

Station Depth Elevation

Earthquake Activity

City Distance Mag. Time & Date
Minimum magnitude displayed is 2.5.

Earthquake Activity

City Distance Mag. Time & Date
Minimum magnitude displayed is 2.5.

Coastal Water Temperatures

Place Temperature

Stations

Nearby Weather Stations

Station Location Temp. Windchill Dew Point Humidity Wind Precip. Elev Updated Type
                   

Watches & Warnings

Special Statement
Issued: 9:12 PM CDT Mar. 23, 2017 – National Weather Service


city sky/wx tmp dp rh wind prudy. Lows in the mid 50s.
.Wednesday... Mostly sunny in the morning then becoming partly
cloudy. Highs in the upper 70s.
.Wednesday night... Partly cloudy. Lows in the upper 50s.
.Thursday... A 50 percent chance of showers and thunderstorms.
Partly cloudy in the morning then becoming mostly cloudy. Highs
in the mid 70s.



912 PM CDT Thu Mar 23 2017


city sky/wx tmp dp rh wind prudy. Lows in the mid 50s.
.Wednesday... Mostly sunny in the morning then becoming partly
cloudy. Highs in the upper 70s.
.Wednesday night... Partly cloudy. Lows in the upper 50s.
.Thursday... A 50 percent chance of showers and thunderstorms.
Partly cloudy in the morning then becoming mostly cloudy. Highs
in the mid 70s.